ARG1567 SACO-SABE
Flight info
| Callsign | ARG1567 |
|---|---|
| Flight time | 1h 12m |
| Altitude | 35000 |
| Route | UTRAX UW24 SNT |
| Aircraft | B38M/M-SDE1FGHILORVWXY/HB1 |
Departure
| Time | 2026-05-03 21:51 |
|---|---|
| Airport | Ingeniero Aeronáutico Ambrosio L.V. Taravella International Airport (SACO) |
Arrival
| Time | 2026-05-03 23:03 |
|---|---|
| Airport | Aeroparque Jorge Newbery (SABE) |
| Time | Latitude | Longitude | Altitude | Speed | Heading |
|---|---|---|---|---|---|
| 2026-05-03 21:26 | -31.31650 | -64.21154 | 1588 ft | 0 kts | 292° |
| 2026-05-03 21:37 | -31.31651 | -64.21153 | 1588 ft | 0 kts | 292° |
| 2026-05-03 21:39 | -31.31654 | -64.21143 | 1589 ft | 3 kts | 291° |
| 2026-05-03 21:39 | -31.31660 | -64.21123 | 1589 ft | 2 kts | 281° |
| 2026-05-03 21:39 | -31.31661 | -64.21103 | 1590 ft | 1 kts | 260° |
| 2026-05-03 21:39 | -31.31657 | -64.21092 | 1591 ft | 1 kts | 232° |
| 2026-05-03 21:40 | -31.31648 | -64.21081 | 1591 ft | 2 kts | 216° |
| 2026-05-03 21:40 | -31.31634 | -64.21071 | 1591 ft | 2 kts | 201° |
| 2026-05-03 21:40 | -31.31626 | -64.21068 | 1592 ft | 1 kts | 187° |
| 2026-05-03 21:40 | -31.31622 | -64.21067 | 1592 ft | 0 kts | 179° |
| 2026-05-03 21:43 | -31.31640 | -64.21067 | 1591 ft | 5 kts | 178° |
| 2026-05-03 21:44 | -31.31688 | -64.21065 | 1591 ft | 8 kts | 178° |
| 2026-05-03 21:44 | -31.31756 | -64.21053 | 1590 ft | 11 kts | 164° |
| 2026-05-03 21:44 | -31.31840 | -64.21029 | 1590 ft | 14 kts | 179° |
| 2026-05-03 21:44 | -31.31906 | -64.21028 | 1590 ft | 15 kts | 180° |
| 2026-05-03 21:45 | -31.32013 | -64.21026 | 1589 ft | 16 kts | 179° |
| 2026-05-03 21:45 | -31.32135 | -64.21023 | 1587 ft | 14 kts | 180° |
| 2026-05-03 21:45 | -31.32256 | -64.21021 | 1587 ft | 15 kts | 179° |
| 2026-05-03 21:45 | -31.32327 | -64.21019 | 1587 ft | 16 kts | 178° |
| 2026-05-03 21:46 | -31.32390 | -64.21007 | 1587 ft | 0 kts | 154° |
| 2026-05-03 21:46 | -31.32389 | -64.21007 | 1587 ft | 0 kts | 154° |
| 2026-05-03 21:47 | -31.32390 | -64.21007 | 1587 ft | 0 kts | 154° |
| 2026-05-03 21:48 | -31.32416 | -64.20984 | 1587 ft | 13 kts | 134° |
| 2026-05-03 21:48 | -31.32401 | -64.20844 | 1586 ft | 23 kts | 45° |
| 2026-05-03 21:48 | -31.32297 | -64.20725 | 1585 ft | 0 kts | 45° |
| 2026-05-03 21:49 | -31.32287 | -64.20714 | 1585 ft | 9 kts | 45° |
| 2026-05-03 21:49 | -31.32085 | -64.20485 | 1582 ft | 80 kts | 44° |
| 2026-05-03 21:50 | -31.31496 | -64.19829 | 1583 ft | 149 kts | 44° |
| 2026-05-03 21:50 | -31.30766 | -64.18974 | 1835 ft | 147 kts | 46° |
| 2026-05-03 21:50 | -31.30040 | -64.18050 | 2051 ft | 161 kts | 45° |
| 2026-05-03 21:50 | -31.29258 | -64.17036 | 2079 ft | 179 kts | 47° |
| 2026-05-03 21:51 | -31.28406 | -64.15933 | 2186 ft | 186 kts | 46° |
| 2026-05-03 21:51 | -31.27509 | -64.14744 | 2720 ft | 204 kts | 46° |
| 2026-05-03 21:51 | -31.26549 | -64.13423 | 3199 ft | 219 kts | 47° |
| 2026-05-03 21:51 | -31.25524 | -64.12065 | 3676 ft | 227 kts | 44° |
| 2026-05-03 21:52 | -31.24447 | -64.10690 | 4188 ft | 232 kts | 44° |
| 2026-05-03 21:52 | -31.23359 | -64.09251 | 4736 ft | 241 kts | 43° |
| 2026-05-03 21:52 | -31.22231 | -64.07747 | 4957 ft | 250 kts | 44° |
| 2026-05-03 21:52 | -31.21094 | -64.06202 | 4975 ft | 251 kts | 44° |
| 2026-05-03 21:53 | -31.19953 | -64.04652 | 4989 ft | 251 kts | 44° |
| 2026-05-03 21:53 | -31.18828 | -64.03131 | 4986 ft | 245 kts | 44° |
| 2026-05-03 21:53 | -31.17760 | -64.01665 | 5015 ft | 231 kts | 44° |
| 2026-05-03 21:53 | -31.16733 | -64.00238 | 5012 ft | 229 kts | 43° |
| 2026-05-03 21:54 | -31.15688 | -63.98823 | 5011 ft | 230 kts | 43° |
| 2026-05-03 21:54 | -31.14634 | -63.97409 | 5002 ft | 230 kts | 43° |
| 2026-05-03 21:54 | -31.13585 | -63.96003 | 5007 ft | 229 kts | 43° |
| 2026-05-03 21:54 | -31.12546 | -63.94595 | 5002 ft | 227 kts | 43° |
| 2026-05-03 21:55 | -31.11509 | -63.93201 | 5005 ft | 228 kts | 43° |
| 2026-05-03 21:55 | -31.10465 | -63.91802 | 5009 ft | 228 kts | 43° |
| 2026-05-03 21:55 | -31.09435 | -63.90430 | 5009 ft | 228 kts | 43° |
| 2026-05-03 21:55 | -31.08396 | -63.89039 | 5003 ft | 227 kts | 43° |
| 2026-05-03 21:56 | -31.07361 | -63.87653 | 5010 ft | 226 kts | 43° |
| 2026-05-03 21:56 | -31.06327 | -63.86269 | 5015 ft | 227 kts | 44° |
| 2026-05-03 21:56 | -31.05657 | -63.84586 | 4983 ft | 239 kts | 78° |
| 2026-05-03 21:56 | -31.05785 | -63.82622 | 5116 ft | 247 kts | 92° |
| 2026-05-03 21:57 | -31.06058 | -63.80632 | 5526 ft | 250 kts | 92° |
| 2026-05-03 21:57 | -31.06323 | -63.78612 | 5941 ft | 253 kts | 92° |
| 2026-05-03 21:57 | -31.06577 | -63.76567 | 6367 ft | 256 kts | 92° |
| 2026-05-03 21:57 | -31.06823 | -63.74501 | 6761 ft | 258 kts | 93° |
| 2026-05-03 21:58 | -31.07050 | -63.72416 | 6965 ft | 260 kts | 92° |
| 2026-05-03 21:58 | -31.07273 | -63.70324 | 6987 ft | 260 kts | 92° |
| 2026-05-03 21:58 | -31.07497 | -63.68235 | 7010 ft | 259 kts | 92° |
| 2026-05-03 21:58 | -31.07720 | -63.66148 | 7011 ft | 259 kts | 92° |
| 2026-05-03 21:59 | -31.07936 | -63.64091 | 7017 ft | 259 kts | 92° |
| 2026-05-03 21:59 | -31.08157 | -63.61996 | 7013 ft | 260 kts | 92° |
| 2026-05-03 21:59 | -31.08378 | -63.59908 | 7014 ft | 259 kts | 92° |
| 2026-05-03 21:59 | -31.08595 | -63.57821 | 7012 ft | 259 kts | 92° |
| 2026-05-03 22:00 | -31.08815 | -63.55736 | 7012 ft | 259 kts | 92° |
| 2026-05-03 22:00 | -31.09027 | -63.53651 | 7016 ft | 259 kts | 92° |
| 2026-05-03 22:00 | -31.09236 | -63.51562 | 7020 ft | 259 kts | 92° |
| 2026-05-03 22:00 | -31.09452 | -63.49467 | 7016 ft | 259 kts | 92° |
| 2026-05-03 22:01 | -31.09667 | -63.47389 | 7014 ft | 258 kts | 92° |
| 2026-05-03 22:01 | -31.09872 | -63.45330 | 7015 ft | 258 kts | 92° |
| 2026-05-03 22:01 | -31.10079 | -63.43249 | 7022 ft | 258 kts | 92° |
| 2026-05-03 22:01 | -31.10288 | -63.41164 | 7021 ft | 259 kts | 92° |
| 2026-05-03 22:02 | -31.10495 | -63.39078 | 7021 ft | 258 kts | 92° |
| 2026-05-03 22:02 | -31.10702 | -63.37000 | 7021 ft | 258 kts | 92° |
| 2026-05-03 22:02 | -31.10906 | -63.34920 | 7020 ft | 258 kts | 92° |
| 2026-05-03 22:02 | -31.11109 | -63.32841 | 7021 ft | 258 kts | 92° |
| 2026-05-03 22:03 | -31.11313 | -63.30760 | 7022 ft | 257 kts | 92° |
| 2026-05-03 22:03 | -31.11514 | -63.28682 | 7025 ft | 257 kts | 92° |
| 2026-05-03 22:03 | -31.11800 | -63.26643 | 7004 ft | 261 kts | 107° |
| 2026-05-03 22:03 | -31.12875 | -63.24960 | 7004 ft | 265 kts | 144° |
| 2026-05-03 22:04 | -31.14599 | -63.24270 | 7006 ft | 265 kts | 181° |
| 2026-05-03 22:04 | -31.16425 | -63.24494 | 7035 ft | 266 kts | 191° |
| 2026-05-03 22:04 | -31.18256 | -63.24856 | 7026 ft | 266 kts | 192° |
| 2026-05-03 22:04 | -31.20086 | -63.25223 | 7021 ft | 266 kts | 192° |
| 2026-05-03 22:05 | -31.21907 | -63.25587 | 7025 ft | 266 kts | 192° |
| 2026-05-03 22:05 | -31.23737 | -63.25953 | 7027 ft | 266 kts | 192° |
| 2026-05-03 22:05 | -31.25563 | -63.26320 | 7023 ft | 266 kts | 192° |
| 2026-05-03 22:05 | -31.27392 | -63.26686 | 7024 ft | 266 kts | 192° |
| 2026-05-03 22:06 | -31.29220 | -63.27054 | 7024 ft | 266 kts | 192° |
| 2026-05-03 22:06 | -31.31044 | -63.27420 | 7018 ft | 266 kts | 192° |
| 2026-05-03 22:06 | -31.32850 | -63.27785 | 7020 ft | 266 kts | 192° |
| 2026-05-03 22:06 | -31.34675 | -63.28156 | 7022 ft | 266 kts | 192° |
| 2026-05-03 22:07 | -31.36497 | -63.28525 | 7027 ft | 266 kts | 192° |
| 2026-05-03 22:07 | -31.38326 | -63.28896 | 7021 ft | 266 kts | 192° |
| 2026-05-03 22:07 | -31.40154 | -63.29268 | 7023 ft | 266 kts | 192° |
| 2026-05-03 22:07 | -31.41979 | -63.29641 | 7022 ft | 266 kts | 192° |
| 2026-05-03 22:08 | -31.43799 | -63.30018 | 7023 ft | 266 kts | 192° |
| 2026-05-03 22:08 | -31.45615 | -63.30394 | 7021 ft | 266 kts | 192° |
| 2026-05-03 22:08 | -31.47440 | -63.30774 | 7024 ft | 266 kts | 192° |
| 2026-05-03 22:08 | -31.49234 | -63.31147 | 7023 ft | 266 kts | 192° |
| 2026-05-03 22:09 | -31.51055 | -63.31520 | 7022 ft | 265 kts | 192° |
| 2026-05-03 22:09 | -31.52873 | -63.31894 | 7013 ft | 265 kts | 192° |
| 2026-05-03 22:09 | -31.54693 | -63.32265 | 7018 ft | 265 kts | 192° |
| 2026-05-03 22:10 | -31.58332 | -63.33016 | 7020 ft | 265 kts | 192° |
| 2026-05-03 22:10 | -31.60148 | -63.33387 | 7018 ft | 265 kts | 192° |
| 2026-05-03 22:10 | -31.61959 | -63.33759 | 7017 ft | 264 kts | 192° |
| 2026-05-03 22:10 | -31.63775 | -63.34130 | 7018 ft | 265 kts | 192° |
| 2026-05-03 22:11 | -31.65593 | -63.34500 | 7018 ft | 265 kts | 192° |
| 2026-05-03 22:11 | -31.67407 | -63.34872 | 7017 ft | 265 kts | 192° |
| 2026-05-03 22:11 | -31.69223 | -63.35245 | 7016 ft | 264 kts | 192° |
| 2026-05-03 22:11 | -31.71012 | -63.35617 | 7012 ft | 264 kts | 192° |
| 2026-05-03 22:12 | -31.72818 | -63.35993 | 7020 ft | 264 kts | 192° |
| 2026-05-03 22:12 | -31.74628 | -63.36371 | 7009 ft | 264 kts | 192° |
| 2026-05-03 22:12 | -31.76437 | -63.36748 | 7075 ft | 264 kts | 192° |
| 2026-05-03 22:12 | -31.78322 | -63.36827 | 7528 ft | 281 kts | 167° |
| 2026-05-03 22:13 | -31.80062 | -63.35757 | 8074 ft | 287 kts | 137° |
| 2026-05-03 22:13 | -31.81510 | -63.34092 | 8673 ft | 292 kts | 135° |
| 2026-05-03 22:13 | -31.82870 | -63.32306 | 9485 ft | 290 kts | 130° |
| 2026-05-03 22:13 | -31.84174 | -63.30513 | 10613 ft | 291 kts | 132° |
| 2026-05-03 22:14 | -31.85530 | -63.28671 | 11321 ft | 305 kts | 133° |
| 2026-05-03 22:14 | -31.86966 | -63.26732 | 11901 ft | 324 kts | 133° |
| 2026-05-03 22:14 | -31.88476 | -63.24704 | 12410 ft | 342 kts | 133° |
| 2026-05-03 22:14 | -31.90085 | -63.22551 | 12972 ft | 357 kts | 133° |
| 2026-05-03 22:15 | -31.91754 | -63.20317 | 13656 ft | 366 kts | 133° |
| 2026-05-03 22:15 | -31.93437 | -63.18066 | 14473 ft | 368 kts | 134° |
| 2026-05-03 22:15 | -31.95144 | -63.15782 | 15163 ft | 375 kts | 134° |
| 2026-05-03 22:15 | -31.96882 | -63.13456 | 15879 ft | 380 kts | 134° |
| 2026-05-03 22:16 | -31.98638 | -63.11102 | 16550 ft | 385 kts | 134° |
| 2026-05-03 22:16 | -32.00421 | -63.08711 | 17232 ft | 390 kts | 135° |
| 2026-05-03 22:16 | -32.02227 | -63.06289 | 17893 ft | 395 kts | 135° |
| 2026-05-03 22:16 | -32.04057 | -63.03832 | 18522 ft | 401 kts | 135° |
| 2026-05-03 22:17 | -32.05882 | -63.01380 | 19119 ft | 404 kts | 135° |
| 2026-05-03 22:17 | -32.07742 | -62.98880 | 19750 ft | 407 kts | 135° |
| 2026-05-03 22:17 | -32.09616 | -62.96359 | 20363 ft | 410 kts | 136° |
| 2026-05-03 22:17 | -32.11501 | -62.93822 | 20972 ft | 414 kts | 136° |
| 2026-05-03 22:18 | -32.13408 | -62.91253 | 21564 ft | 417 kts | 136° |
| 2026-05-03 22:18 | -32.15328 | -62.88666 | 22168 ft | 420 kts | 136° |
| 2026-05-03 22:18 | -32.17261 | -62.86056 | 22753 ft | 424 kts | 136° |
| 2026-05-03 22:18 | -32.19211 | -62.83426 | 23340 ft | 427 kts | 136° |
| 2026-05-03 22:19 | -32.21180 | -62.80766 | 23866 ft | 430 kts | 136° |
| 2026-05-03 22:19 | -32.23157 | -62.78092 | 24349 ft | 433 kts | 136° |
| 2026-05-03 22:19 | -32.25146 | -62.75402 | 24843 ft | 436 kts | 136° |
| 2026-05-03 22:19 | -32.27145 | -62.72695 | 25306 ft | 439 kts | 136° |
| 2026-05-03 22:20 | -32.29140 | -62.69993 | 25755 ft | 442 kts | 136° |
| 2026-05-03 22:20 | -32.31166 | -62.67247 | 26246 ft | 445 kts | 136° |
| 2026-05-03 22:20 | -32.33205 | -62.64481 | 26694 ft | 448 kts | 136° |
| 2026-05-03 22:20 | -32.35258 | -62.61693 | 27144 ft | 450 kts | 136° |
| 2026-05-03 22:21 | -32.37323 | -62.58887 | 27603 ft | 453 kts | 137° |
| 2026-05-03 22:21 | -32.39403 | -62.56059 | 28044 ft | 456 kts | 136° |
| 2026-05-03 22:21 | -32.41489 | -62.53220 | 28473 ft | 459 kts | 136° |
| 2026-05-03 22:21 | -32.43585 | -62.50366 | 28901 ft | 461 kts | 136° |
| 2026-05-03 22:22 | -32.45697 | -62.47487 | 29325 ft | 464 kts | 136° |
| 2026-05-03 22:22 | -32.47827 | -62.44582 | 29743 ft | 467 kts | 136° |
| 2026-05-03 22:22 | -32.49935 | -62.41705 | 30138 ft | 469 kts | 136° |
| 2026-05-03 22:22 | -32.52107 | -62.38737 | 30486 ft | 472 kts | 136° |
| 2026-05-03 22:23 | -32.54234 | -62.35829 | 30832 ft | 474 kts | 136° |
| 2026-05-03 22:23 | -32.56400 | -62.32865 | 31182 ft | 476 kts | 136° |
| 2026-05-03 22:23 | -32.58573 | -62.29890 | 31527 ft | 479 kts | 136° |
| 2026-05-03 22:23 | -32.60761 | -62.26891 | 31860 ft | 481 kts | 136° |
| 2026-05-03 22:24 | -32.62951 | -62.23886 | 32201 ft | 483 kts | 136° |
| 2026-05-03 22:24 | -32.65163 | -62.20850 | 32535 ft | 486 kts | 136° |
| 2026-05-03 22:24 | -32.67376 | -62.17810 | 32859 ft | 488 kts | 136° |
| 2026-05-03 22:24 | -32.69474 | -62.14593 | 33223 ft | 494 kts | 130° |
| 2026-05-03 22:25 | -32.71445 | -62.11257 | 33663 ft | 493 kts | 130° |
| 2026-05-03 22:25 | -32.73401 | -62.07925 | 34103 ft | 492 kts | 130° |
| 2026-05-03 22:25 | -32.75356 | -62.04584 | 34482 ft | 491 kts | 130° |
| 2026-05-03 22:25 | -32.77302 | -62.01251 | 34826 ft | 491 kts | 130° |
| 2026-05-03 22:26 | -32.79252 | -61.97909 | 35014 ft | 492 kts | 130° |
| 2026-05-03 22:26 | -32.83133 | -61.91249 | 35014 ft | 489 kts | 130° |
| 2026-05-03 22:27 | -32.86980 | -61.84633 | 35017 ft | 489 kts | 130° |
| 2026-05-03 22:27 | -32.90842 | -61.77982 | 35014 ft | 488 kts | 130° |
| 2026-05-03 22:28 | -32.94710 | -61.71308 | 35015 ft | 488 kts | 130° |
| 2026-05-03 22:28 | -32.98566 | -61.64642 | 35020 ft | 488 kts | 130° |
| 2026-05-03 22:29 | -33.02390 | -61.58021 | 35017 ft | 488 kts | 130° |
| 2026-05-03 22:29 | -33.06243 | -61.51337 | 35019 ft | 489 kts | 130° |
| 2026-05-03 22:30 | -33.10111 | -61.44613 | 35019 ft | 492 kts | 130° |
| 2026-05-03 22:30 | -33.13952 | -61.37926 | 35019 ft | 492 kts | 130° |
| 2026-05-03 22:31 | -33.17819 | -61.31181 | 35022 ft | 492 kts | 130° |
| 2026-05-03 22:31 | -33.21681 | -61.24433 | 35025 ft | 492 kts | 130° |
| 2026-05-03 22:32 | -33.25539 | -61.17682 | 35024 ft | 492 kts | 130° |
| 2026-05-03 22:32 | -33.29388 | -61.10915 | 35026 ft | 492 kts | 130° |
| 2026-05-03 22:33 | -33.32584 | -61.05272 | 35025 ft | 492 kts | 130° |
| 2026-05-03 22:33 | -33.37059 | -60.97346 | 35030 ft | 492 kts | 130° |
| 2026-05-03 22:34 | -33.40883 | -60.90544 | 35031 ft | 492 kts | 130° |
| 2026-05-03 22:34 | -33.44056 | -60.84890 | 35030 ft | 492 kts | 130° |
| 2026-05-03 22:35 | -33.47878 | -60.78071 | 35034 ft | 492 kts | 130° |
| 2026-05-03 22:35 | -33.51689 | -60.71256 | 35033 ft | 492 kts | 130° |
| 2026-05-03 22:36 | -33.55500 | -60.64432 | 35031 ft | 492 kts | 130° |
| 2026-05-03 22:36 | -33.59299 | -60.57613 | 35032 ft | 492 kts | 130° |
| 2026-05-03 22:37 | -33.63078 | -60.50819 | 35040 ft | 492 kts | 130° |
| 2026-05-03 22:37 | -33.66872 | -60.43985 | 35042 ft | 492 kts | 130° |
| 2026-05-03 22:38 | -33.70663 | -60.37143 | 35029 ft | 492 kts | 130° |
| 2026-05-03 22:38 | -33.72545 | -60.33742 | 34734 ft | 488 kts | 130° |
| 2026-05-03 22:38 | -33.74420 | -60.30351 | 34270 ft | 486 kts | 130° |
| 2026-05-03 22:38 | -33.76292 | -60.26961 | 33713 ft | 487 kts | 130° |
| 2026-05-03 22:39 | -33.78165 | -60.23568 | 33146 ft | 488 kts | 130° |
| 2026-05-03 22:39 | -33.80042 | -60.20165 | 32671 ft | 490 kts | 130° |
| 2026-05-03 22:39 | -33.81928 | -60.16740 | 32130 ft | 491 kts | 130° |
| 2026-05-03 22:39 | -33.83813 | -60.13329 | 31347 ft | 490 kts | 130° |
| 2026-05-03 22:40 | -33.85724 | -60.09923 | 30574 ft | 490 kts | 130° |
| 2026-05-03 22:40 | -33.87627 | -60.06526 | 30059 ft | 490 kts | 130° |
| 2026-05-03 22:40 | -33.89535 | -60.03114 | 29440 ft | 492 kts | 130° |
| 2026-05-03 22:40 | -33.91430 | -59.99721 | 28866 ft | 494 kts | 130° |
| 2026-05-03 22:41 | -33.93351 | -59.96279 | 28288 ft | 496 kts | 130° |
| 2026-05-03 22:41 | -33.95280 | -59.92818 | 27722 ft | 498 kts | 130° |
| 2026-05-03 22:41 | -33.97218 | -59.89339 | 27175 ft | 500 kts | 130° |
| 2026-05-03 22:41 | -33.99156 | -59.85855 | 26619 ft | 501 kts | 130° |
| 2026-05-03 22:42 | -34.01093 | -59.82371 | 26099 ft | 502 kts | 129° |
| 2026-05-03 22:42 | -34.03043 | -59.78859 | 25568 ft | 505 kts | 129° |
| 2026-05-03 22:42 | -34.04998 | -59.75334 | 25055 ft | 507 kts | 129° |
| 2026-05-03 22:42 | -34.06958 | -59.71798 | 24562 ft | 506 kts | 129° |
| 2026-05-03 22:43 | -34.08908 | -59.68277 | 24080 ft | 504 kts | 129° |
| 2026-05-03 22:43 | -34.10848 | -59.64769 | 23594 ft | 501 kts | 129° |
| 2026-05-03 22:43 | -34.12777 | -59.61277 | 23033 ft | 497 kts | 129° |
| 2026-05-03 22:43 | -34.14688 | -59.57816 | 22476 ft | 493 kts | 129° |
| 2026-05-03 22:44 | -34.16571 | -59.54403 | 21963 ft | 482 kts | 129° |
| 2026-05-03 22:44 | -34.18385 | -59.51112 | 21452 ft | 473 kts | 129° |
| 2026-05-03 22:44 | -34.20211 | -59.47795 | 20938 ft | 464 kts | 129° |
| 2026-05-03 22:44 | -34.21956 | -59.44610 | 20435 ft | 458 kts | 128° |
| 2026-05-03 22:45 | -34.23658 | -59.41374 | 19872 ft | 455 kts | 128° |
| 2026-05-03 22:45 | -34.25348 | -59.38165 | 19373 ft | 449 kts | 128° |
| 2026-05-03 22:45 | -34.27013 | -59.35003 | 18821 ft | 444 kts | 128° |
| 2026-05-03 22:45 | -34.28666 | -59.31867 | 18274 ft | 439 kts | 128° |
| 2026-05-03 22:46 | -34.30295 | -59.28771 | 17665 ft | 433 kts | 128° |
| 2026-05-03 22:46 | -34.31906 | -59.25710 | 17067 ft | 428 kts | 127° |
| 2026-05-03 22:46 | -34.33491 | -59.22693 | 16488 ft | 423 kts | 127° |
| 2026-05-03 22:46 | -34.35060 | -59.19705 | 15920 ft | 417 kts | 127° |
| 2026-05-03 22:47 | -34.36579 | -59.16810 | 15425 ft | 398 kts | 127° |
| 2026-05-03 22:47 | -34.38034 | -59.14036 | 14910 ft | 382 kts | 127° |
| 2026-05-03 22:47 | -34.39430 | -59.11371 | 14405 ft | 368 kts | 127° |
| 2026-05-03 22:47 | -34.40775 | -59.08802 | 13935 ft | 355 kts | 128° |
| 2026-05-03 22:48 | -34.42068 | -59.06330 | 13493 ft | 341 kts | 128° |
| 2026-05-03 22:48 | -34.43313 | -59.03948 | 13042 ft | 328 kts | 128° |
| 2026-05-03 22:48 | -34.44501 | -59.01690 | 12641 ft | 318 kts | 124° |
| 2026-05-03 22:48 | -34.45667 | -58.99449 | 12242 ft | 308 kts | 124° |
| 2026-05-03 22:49 | -34.46809 | -58.97256 | 11860 ft | 307 kts | 124° |
| 2026-05-03 22:49 | -34.47945 | -58.95076 | 11497 ft | 305 kts | 124° |
| 2026-05-03 22:49 | -34.49077 | -58.92903 | 11141 ft | 304 kts | 124° |
| 2026-05-03 22:49 | -34.49824 | -58.91471 | 10907 ft | 303 kts | 124° |
| 2026-05-03 22:50 | -34.51328 | -58.88581 | 10438 ft | 302 kts | 124° |
| 2026-05-03 22:50 | -34.52445 | -58.86434 | 10094 ft | 300 kts | 123° |
| 2026-05-03 22:50 | -34.53549 | -58.84311 | 9821 ft | 295 kts | 123° |
| 2026-05-03 22:50 | -34.54639 | -58.82213 | 9511 ft | 292 kts | 123° |
| 2026-05-03 22:51 | -34.55733 | -58.80108 | 9179 ft | 297 kts | 123° |
| 2026-05-03 22:51 | -34.56662 | -58.77856 | 8839 ft | 301 kts | 109° |
| 2026-05-03 22:51 | -34.57304 | -58.75460 | 8525 ft | 302 kts | 108° |
| 2026-05-03 22:51 | -34.57959 | -58.73041 | 8235 ft | 300 kts | 108° |
| 2026-05-03 22:52 | -34.58614 | -58.70647 | 7982 ft | 299 kts | 108° |
| 2026-05-03 22:52 | -34.59271 | -58.68257 | 7711 ft | 298 kts | 108° |
| 2026-05-03 22:52 | -34.59925 | -58.65881 | 7452 ft | 296 kts | 108° |
| 2026-05-03 22:52 | -34.60577 | -58.63517 | 7191 ft | 294 kts | 108° |
| 2026-05-03 22:53 | -34.61217 | -58.61182 | 6941 ft | 288 kts | 108° |
| 2026-05-03 22:53 | -34.61828 | -58.58889 | 6692 ft | 283 kts | 108° |
| 2026-05-03 22:53 | -34.62430 | -58.56629 | 6437 ft | 279 kts | 107° |
| 2026-05-03 22:53 | -34.63022 | -58.54408 | 6152 ft | 275 kts | 107° |
| 2026-05-03 22:54 | -34.63606 | -58.52217 | 5907 ft | 270 kts | 107° |
| 2026-05-03 22:54 | -34.64180 | -58.50064 | 5640 ft | 267 kts | 107° |
| 2026-05-03 22:54 | -34.64749 | -58.47929 | 5368 ft | 263 kts | 107° |
| 2026-05-03 22:54 | -34.65309 | -58.45824 | 5100 ft | 260 kts | 107° |
| 2026-05-03 22:55 | -34.65854 | -58.43772 | 4854 ft | 257 kts | 107° |
| 2026-05-03 22:55 | -34.66400 | -58.41719 | 4595 ft | 253 kts | 106° |
| 2026-05-03 22:55 | -34.66944 | -58.39709 | 4368 ft | 248 kts | 105° |
| 2026-05-03 22:55 | -34.67466 | -58.37722 | 4161 ft | 242 kts | 105° |
| 2026-05-03 22:56 | -34.67972 | -58.35809 | 3960 ft | 235 kts | 105° |
| 2026-05-03 22:56 | -34.68471 | -58.33936 | 3705 ft | 231 kts | 104° |
| 2026-05-03 22:56 | -34.68955 | -58.32093 | 3476 ft | 226 kts | 104° |
| 2026-05-03 22:56 | -34.69429 | -58.30298 | 3261 ft | 220 kts | 104° |
| 2026-05-03 22:57 | -34.69884 | -58.28575 | 3048 ft | 207 kts | 103° |
| 2026-05-03 22:57 | -34.70240 | -58.26950 | 2786 ft | 188 kts | 86° |
| 2026-05-03 22:57 | -34.69960 | -58.25550 | 2601 ft | 159 kts | 51° |
| 2026-05-03 22:57 | -34.69193 | -58.24667 | 2521 ft | 151 kts | 24° |
| 2026-05-03 22:58 | -34.68204 | -58.24290 | 2450 ft | 148 kts | 7° |
| 2026-05-03 22:58 | -34.67191 | -58.24128 | 2358 ft | 149 kts | 5° |
| 2026-05-03 22:58 | -34.66193 | -58.24318 | 2228 ft | 147 kts | 335° |
| 2026-05-03 22:58 | -34.65402 | -58.25116 | 2138 ft | 151 kts | 315° |
| 2026-05-03 22:59 | -34.64735 | -58.26109 | 2030 ft | 152 kts | 314° |
| 2026-05-03 22:59 | -34.64062 | -58.27099 | 1907 ft | 150 kts | 313° |
| 2026-05-03 22:59 | -34.63450 | -58.28087 | 1808 ft | 144 kts | 310° |
| 2026-05-03 22:59 | -34.62887 | -58.29078 | 1703 ft | 141 kts | 309° |
| 2026-05-03 23:00 | -34.62349 | -58.30045 | 1659 ft | 136 kts | 310° |
| 2026-05-03 23:00 | -34.61820 | -58.30994 | 1664 ft | 136 kts | 309° |
| 2026-05-03 23:00 | -34.61291 | -58.31945 | 1557 ft | 136 kts | 309° |
| 2026-05-03 23:00 | -34.60764 | -58.32890 | 1456 ft | 135 kts | 310° |
| 2026-05-03 23:01 | -34.60247 | -58.33844 | 1330 ft | 135 kts | 307° |
| 2026-05-03 23:01 | -34.59755 | -58.34806 | 1126 ft | 133 kts | 312° |
| 2026-05-03 23:01 | -34.59227 | -58.35712 | 925 ft | 132 kts | 314° |
| 2026-05-03 23:01 | -34.58697 | -58.36626 | 809 ft | 132 kts | 310° |
| 2026-05-03 23:02 | -34.58172 | -58.37558 | 630 ft | 134 kts | 304° |
| 2026-05-03 23:02 | -34.57652 | -58.38485 | 481 ft | 132 kts | 307° |
| 2026-05-03 23:02 | -34.57136 | -58.39393 | 317 ft | 131 kts | 301° |
| 2026-05-03 23:02 | -34.56638 | -58.40300 | 125 ft | 131 kts | 304° |
| 2026-05-03 23:03 | -34.56131 | -58.41209 | 30 ft | 117 kts | 305° |
| 2026-05-03 23:03 | -34.55832 | -58.41740 | 28 ft | 41 kts | 304° |
| 2026-05-03 23:03 | -34.55715 | -58.41902 | 28 ft | 20 kts | 359° |
| 2026-05-03 23:03 | -34.55680 | -58.41839 | 29 ft | 9 kts | 133° |
| 2026-05-03 23:04 | -34.55717 | -58.41790 | 28 ft | 9 kts | 132° |
| 2026-05-03 23:04 | -34.55745 | -58.41731 | 29 ft | 0 kts | 110° |
| 2026-05-03 23:04 | -34.55746 | -58.41730 | 29 ft | 1 kts | 110° |
| 2026-05-03 23:04 | -34.55756 | -58.41700 | 29 ft | 9 kts | 114° |
| 2026-05-03 23:05 | -34.55794 | -58.41608 | 29 ft | 14 kts | 116° |
| 2026-05-03 23:05 | -34.55842 | -58.41493 | 29 ft | 16 kts | 117° |
| 2026-05-03 23:05 | -34.55892 | -58.41376 | 29 ft | 12 kts | 117° |
| 2026-05-03 23:05 | -34.55883 | -58.41290 | 29 ft | 11 kts | 46° |
| 2026-05-03 23:06 | -34.55837 | -58.41285 | 29 ft | 7 kts | 322° |
| 2026-05-03 23:06 | -34.55805 | -58.41339 | 29 ft | 6 kts | 304° |
| 2026-05-03 23:06 | -34.55787 | -58.41341 | 29 ft | 1 kts | 41° |
| 2026-05-03 23:06 | -34.55772 | -58.41328 | 29 ft | 1 kts | 35° |
| 2026-05-03 23:07 | -34.55763 | -58.41320 | 29 ft | 2 kts | 36° |